Latest Weather Observations for Moomba Airport

IDS60801

Issued at 2:01 pm CST Monday 30 May 2016 (issued every 30 minutes, with the page automatically refreshed every 10 minutes)

About weather observations | Map of weather stations | Latest weather observations for SA | Other Formats
Station Details ID: 017123 Name: MOOMBA AIRPORT Lat: -28.10 Lon: 140.20 Height: 37.8 m
Data from the previous 72 hours. | See also: Recent months at Moomba Airport
Date/Time
CST
Temp
°C
App
Temp
°C
Dew
Point
Rel
Hum
%
Delta-T
°C
Wind Press
QNH
hPa
Press
MSL
hPa
Rain
since 9 am
mm
Dir
 
Spd
km/h
Gust
km/h
Spd
kts
Gust
kts
30/02:00pm 20.7 15.5 2.5 30 8.5 ENE 19 22 10 12 1019.2 1019.2 0.0
30/01:30pm 20.9 15.7 2.7 30 8.5 NE 19 24 10 13 1019.3 1019.3 0.0
30/01:00pm 20.8 15.5 2.1 29 8.7 NE 19 28 10 15 1019.9 1019.9 0.0
30/12:30pm 21.2 16.4 2.5 29 8.7 NE 17 24 9 13 1020.9 1020.9 0.0
30/12:00pm 20.9 16.6 3.2 31 8.4 NNE 15 20 8 11 1021.4 1021.4 0.0
30/11:30am 20.2 14.9 3.0 32 8.1 NE 20 26 11 14 1021.7 1021.7 0.0
30/11:00am 19.6 14.1 4.1 36 7.4 NE 22 28 12 15 1021.8 1021.8 0.0
30/10:30am 18.4 13.2 3.5 37 7.0 ENE 20 24 11 13 1022.3 1022.3 0.0
30/10:00am 17.1 12.1 3.8 41 6.2 ENE 19 22 10 12 1022.3 1022.3 0.0
30/09:30am 15.6 11.2 4.9 49 5.0 E 17 20 9 11 1022.3 1022.3 0.0
30/09:00am 13.7 10.1 5.1 56 4.0 E 13 17 7 9 1022.1 1022.1 0.0
30/08:30am 11.1 6.7 4.8 65 2.8 E 17 20 9 11 1021.7 1021.7 0.0
30/08:00am 9.6 5.8 4.0 68 2.5 E 13 17 7 9 1021.7 1021.7 0.0
30/07:30am 8.8 5.4 4.2 73 2.0 E 11 13 6 7 1021.5 1021.5 0.0
30/07:00am 7.8 4.7 3.5 74 1.8 E 9 11 5 6 1021.4 1021.4 0.0
30/06:30am 7.6 4.4 3.3 74 1.8 E 9 9 5 5 1020.9 1020.9 0.0
30/06:00am 7.5 3.9 3.2 74 1.8 E 11 11 6 6 1020.2 1020.2 0.0
30/05:30am 7.9 4.7 3.2 72 2.0 E 9 9 5 5 1020.0 1020.0 0.0
30/05:00am 9.4 5.9 3.6 67 2.5 ENE 11 13 6 7 1019.8 1019.8 0.0
30/04:30am 8.2 5.0 3.1 70 2.2 NE 9 11 5 6 1019.5 1019.5 0.0
30/04:00am 7.7 3.7 3.0 72 2.0 E 13 15 7 8 1019.2 1019.2 0.0
30/03:30am 8.5 4.9 2.9 68 2.4 E 11 13 6 7 1019.5 1019.5 0.0
30/03:00am 8.8 5.2 3.2 68 2.4 E 11 13 6 7 1019.6 1019.6 0.0
30/02:30am 9.0 5.8 3.2 67 2.5 E 9 9 5 5 1019.8 1019.8 0.0
30/02:00am 9.2 6.0 3.2 66 2.6 E 9 11 5 6 1019.8 1019.8 0.0
30/01:30am 9.2 6.0 3.2 66 2.6 ENE 9 11 5 6 1019.8 1019.8 0.0
30/01:00am 9.2 5.7 3.4 67 2.5 E 11 13 6 7 1019.8 1019.8 0.0
30/12:30am 9.4 6.2 3.2 65 2.7 E 9 11 5 6 1019.9 1019.9 0.0
30/12:00am 10.3 7.2 3.6 63 2.9 E 9 11 5 6 1020.0 1020.0 0.0
 
Date/Time
CST
Temp
°C
App
Temp
°C
Dew
Point
Rel
Hum
%
Delta-T
°C
Wind Press
QNH
hPa
Press
MSL
hPa
Rain
since 9 am
mm
Dir
 
Spd
km/h
Gust
km/h
Spd
kts
Gust
kts
29/11:30pm 10.4 6.9 3.7 63 2.9 E 11 11 6 6 1020.2 1020.2 0.0
29/11:00pm 10.5 7.8 3.5 62 3.1 ENE 7 9 4 5 1020.4 1020.4 0.0
29/10:30pm 11.0 7.9 3.8 61 3.2 ENE 9 9 5 5 1020.5 1020.5 0.0
29/10:00pm 11.2 8.5 3.7 60 3.3 NE 7 7 4 4 1020.6 1020.6 0.0
29/09:30pm 11.7 9.0 3.7 58 3.5 NE 7 9 4 5 1020.6 1020.6 0.0
29/09:00pm 12.3 9.8 3.8 56 3.8 E 6 7 3 4 1020.7 1020.7 0.0
29/08:30pm 12.8 10.1 3.5 53 4.1 E 7 9 4 5 1020.6 1020.6 0.0
29/08:00pm 13.3 10.5 3.4 51 4.4 ESE 7 9 4 5 1020.5 1020.5 0.0
29/07:30pm 13.2 10.1 3.6 52 4.3 E 9 11 5 6 1020.3 1020.3 0.0
29/07:00pm 14.1 11.0 3.8 50 4.7 E 9 11 5 6 1020.0 1020.0 0.0
29/06:30pm 15.6 12.7 4.6 48 5.1 ESE 9 11 5 6 1019.6 1019.6 0.0
29/06:00pm 16.8 13.7 3.8 42 6.0 SE 9 11 5 6 1019.0 1019.0 0.0
29/05:30pm 17.6 16.3 3.9 40 6.4 CALM 0 0 0 0 1019.0 1019.0 0.0
29/05:00pm 18.5 17.1 3.6 37 7.0 CALM 0 0 0 0 1018.7 1018.7 0.0
29/04:30pm 18.9 16.2 3.5 36 7.2 NW 7 9 4 5 1018.7 1018.7 0.0
29/04:00pm 19.1 16.9 3.3 35 7.4 SSW 4 7 2 4 1018.7 1018.7 0.0
29/03:30pm 19.5 16.9 3.2 34 7.6 NW 6 15 3 8 1018.5 1018.5 0.0
29/03:00pm 19.5 17.7 3.2 34 7.6 NNW 2 11 1 6 1018.5 1018.5 0.0
29/02:30pm 19.1 17.0 3.7 36 7.3 SSW 4 9 2 5 1018.7 1018.7 0.0
29/02:00pm 18.9 16.1 3.1 35 7.4 WNW 7 13 4 7 1018.8 1018.8 0.0
29/01:30pm 18.5 15.8 3.9 38 6.9 WSW 7 11 4 6 1019.0 1019.0 0.0
29/01:00pm 18.6 16.1 4.0 38 6.9 SW 6 9 3 5 1019.3 1019.3 0.0
29/12:30pm 18.1 15.7 4.3 40 6.5 NNW 6 11 3 6 1019.9 1019.9 0.0
29/12:00pm 18.0 15.1 4.6 41 6.4 NE 9 13 5 7 1020.3 1020.3 0.0
29/11:30am 17.6 14.7 4.6 42 6.2 NE 9 13 5 7 1020.4 1020.4 0.0
29/11:00am 17.4 15.8 4.7 43 6.0 W 2 6 1 3 1021.1 1021.1 0.0
29/10:30am 16.9 15.9 5.5 47 5.5 CALM 0 4 0 2 1021.3 1021.3 0.0
29/10:00am 16.1 15.1 5.4 49 5.1 CALM 0 0 0 0 1021.4 1021.4 0.0
29/09:30am 14.6 12.7 5.1 53 4.4 NE 4 6 2 3 1021.3 1021.3 0.0
29/09:00am 12.9 10.5 5.1 59 3.6 NNE 7 9 4 5 1021.1 1021.1 0.0
29/08:30am 11.2 8.8 5.1 66 2.8 NNE 7 9 4 5 1020.7 1020.7 0.0
29/08:00am 10.0 7.5 4.8 70 2.3 N 7 9 4 5 1020.4 1020.4 0.0
29/07:30am 8.3 5.8 4.9 79 1.5 N 7 9 4 5 1020.1 1020.1 0.0
29/07:00am 6.7 4.2 4.0 83 1.2 N 6 9 3 5 1019.8 1019.8 0.0
29/06:30am 6.3 4.8 3.1 80 1.3 CALM 0 0 0 0 1019.6 1019.6 0.0
29/06:00am 7.1 5.8 4.1 81 1.3 CALM 0 0 0 0 1019.4 1019.4 0.0
29/05:30am 7.0 5.6 3.6 79 1.4 CALM 0 0 0 0 1019.2 1019.2 0.0
29/05:00am 7.6 5.9 4.2 79 1.5 NNE 2 6 1 3 1018.9 1018.9 0.0
29/04:30am 7.0 5.2 3.6 79 1.4 NNW 2 6 1 3 1018.8 1018.8 0.0
29/04:00am 7.2 4.7 3.6 78 1.5 NNW 6 7 3 4 1018.8 1018.8 0.0
29/03:30am 7.6 5.8 3.3 74 1.8 NNW 2 6 1 3 1018.8 1018.8 0.0
29/03:00am 8.2 5.8 4.2 76 1.7 NNW 6 7 3 4 1018.9 1018.9 0.0
29/02:30am 8.3 6.6 3.9 74 1.9 WNW 2 7 1 4 1018.8 1018.8 0.0
29/02:00am 9.0 6.4 4.2 72 2.1 W 7 7 4 4 1018.7 1018.7 0.0
29/01:30am 8.5 6.3 3.6 71 2.1 S 4 9 2 5 1018.3 1018.3 0.0
29/01:00am 8.2 5.4 3.3 71 2.1 N 7 9 4 5 1018.3 1018.3 0.0
29/12:30am 9.5 6.1 4.1 69 2.4 NW 11 11 6 6 1018.9 1018.9 0.0
29/12:00am 9.9 6.5 4.1 67 2.6 NW 11 13 6 7 1019.2 1019.2 0.0
 
Date/Time
CST
Temp
°C
App
Temp
°C
Dew
Point
Rel
Hum
%
Delta-T
°C
Wind Press
QNH
hPa
Press
MSL
hPa
Rain
since 9 am
mm
Dir
 
Spd
km/h
Gust
km/h
Spd
kts
Gust
kts
28/11:30pm 10.4 7.8 4.3 66 2.7 NW 7 9 4 5 1019.4 1019.4 0.0
28/11:00pm 10.6 7.9 3.9 63 3.0 WNW 7 9 4 5 1019.6 1019.6 0.0
28/10:30pm 11.0 8.4 4.2 63 3.0 WNW 7 9 4 5 1019.7 1019.7 0.0
28/10:00pm 11.0 8.6 4.2 63 3.0 NW 6 7 3 4 1019.7 1019.7 0.0
28/09:30pm 11.2 8.2 4.2 62 3.1 WNW 9 11 5 6 1019.6 1019.6 0.0
28/09:00pm 11.7 9.1 4.2 60 3.4 WNW 7 9 4 5 1019.7 1019.7 0.0
28/08:30pm 11.6 9.0 4.3 61 3.3 NW 7 9 4 5 1019.5 1019.5 0.0
28/08:00pm 11.9 10.6 3.9 58 3.6 CALM 0 0 0 0 1019.0 1019.0 0.0
28/07:30pm 13.1 11.8 4.0 54 4.1 CALM 0 0 0 0 1018.9 1018.9 0.0
28/07:00pm 14.0 11.6 4.3 52 4.5 WSW 6 6 3 3 1018.7 1018.7 0.0
28/06:30pm 14.3 11.8 4.0 50 4.7 WSW 6 7 3 4 1018.3 1018.3 0.0
28/06:00pm 15.0 12.0 4.1 48 5.0 WSW 9 11 5 6 1018.0 1018.0 0.0
28/05:30pm 16.2 13.2 3.9 44 5.7 WSW 9 13 5 7 1017.6 1017.6 0.0
28/05:00pm 17.5 13.2 3.4 39 6.5 WSW 15 20 8 11 1017.4 1017.4 0.0
28/04:30pm 17.9 12.9 3.8 39 6.6 SW 19 22 10 12 1017.2 1017.2 0.0
28/04:00pm 18.3 13.6 3.4 37 7.0 WSW 17 24 9 13 1017.2 1017.2 0.0
28/03:30pm 18.5 13.5 3.6 37 7.0 WSW 19 24 10 13 1017.2 1017.2 0.0
28/03:00pm 18.4 13.8 3.8 38 6.9 WSW 17 24 9 13 1017.2 1017.2 0.0
28/02:30pm 18.4 13.2 3.5 37 7.0 W 20 28 11 15 1017.2 1017.2 0.0
28/02:00pm 18.4 13.6 4.6 40 6.6 SW 19 32 10 17 1017.2 1017.2 0.0
28/01:30pm 18.3 13.1 5.5 43 6.2 WSW 22 30 12 16 1017.7 1017.7 0.0
28/01:00pm 18.1 13.2 5.0 42 6.3 WSW 20 28 11 15 1017.9 1017.9 0.0
28/12:30pm 17.4 12.8 5.4 45 5.8 WSW 19 26 10 14 1018.1 1018.1 0.0
28/12:00pm 17.1 12.3 4.8 44 5.8 WSW 19 28 10 15 1018.6 1018.6 0.0
28/11:30am 16.8 12.1 5.1 46 5.6 SW 19 30 10 16 1019.0 1019.0 0.0
28/11:00am 16.2 11.8 6.6 53 4.7 WSW 19 24 10 13 1019.6 1019.6 0.0
28/10:30am 15.2 10.7 7.0 58 4.0 WSW 20 28 11 15 1019.7 1019.7 0.0
28/10:00am 14.6 10.3 7.2 61 3.6 WSW 19 24 10 13 1020.0 1020.0 0.0
28/09:30am 13.9 9.0 7.0 63 3.3 WSW 22 28 12 15 1020.0 1020.0 0.0
28/09:00am 13.2 8.9 7.2 67 2.9 WSW 19 22 10 12 1019.7 1019.7 0.0
28/08:30am 12.2 8.3 7.1 71 2.4 WSW 17 22 9 12 1019.3 1019.3 0.0
28/08:00am 10.8 7.2 6.7 76 1.9 W 15 19 8 10 1018.8 1018.8 0.0
28/07:30am 9.6 6.3 6.5 81 1.4 WNW 13 19 7 10 1018.6 1018.6 0.0
28/07:00am 9.2 5.5 6.3 82 1.3 W 15 19 8 10 1018.2 1018.2 0.0
28/06:30am 9.5 5.4 6.2 80 1.5 WNW 17 20 9 11 1017.5 1017.5 0.0
28/06:00am 10.3 6.7 6.8 79 1.6 W 15 19 8 10 1017.4 1017.4 0.0
28/05:30am 10.2 6.9 6.5 78 1.7 W 13 17 7 9 1017.5 1017.5 0.0
28/05:00am 10.3 7.4 6.5 77 1.8 W 11 13 6 7 1017.5 1017.5 0.0
28/04:30am 10.5 7.6 6.3 75 2.0 W 11 13 6 7 1017.5 1017.5 0.0
28/04:00am 11.1 8.2 6.5 73 2.2 W 11 13 6 7 1017.3 1017.3 0.0
28/03:30am 11.7 8.4 6.2 69 2.6 WSW 13 13 7 7 1017.1 1017.1 0.0
28/03:00am 12.0 9.1 6.3 68 2.7 W 11 13 6 7 1017.1 1017.1 0.0
28/02:30am 12.5 9.1 6.1 65 3.0 WSW 13 15 7 8 1017.1 1017.1 0.0
28/02:00am 13.2 9.5 6.1 62 3.4 WSW 15 17 8 9 1017.1 1017.1 0.0
28/01:30am 12.8 9.5 6.2 64 3.1 WSW 13 15 7 8 1017.1 1017.1 0.0
28/01:00am 12.7 9.0 6.1 64 3.1 W 15 19 8 10 1016.8 1016.8 0.0
28/12:30am 13.0 9.4 6.6 65 3.1 W 15 20 8 11 1016.8 1016.8 0.0
28/12:00am 13.4 9.4 6.7 64 3.2 WNW 17 24 9 13 1016.8 1016.8 0.0
 
Date/Time
CST
Temp
°C
App
Temp
°C
Dew
Point
Rel
Hum
%
Delta-T
°C
Wind Press
QNH
hPa
Press
MSL
hPa
Rain
since 9 am
mm
Dir
 
Spd
km/h
Gust
km/h
Spd
kts
Gust
kts
27/11:30pm 13.9 9.6 7.2 64 3.3 NW 19 22 10 12 1016.5 1016.5 0.0
27/11:00pm 13.7 9.8 7.2 65 3.2 NW 17 20 9 11 1016.4 1016.4 0.0
27/10:30pm 13.7 10.2 7.2 65 3.2 NW 15 19 8 10 1016.7 1016.7 0.0
27/10:00pm 13.7 10.2 7.0 64 3.3 NW 15 17 8 9 1017.0 1017.0 0.0
27/09:30pm 14.3 11.1 6.9 61 3.6 WNW 13 17 7 9 1017.0 1017.0 0.0
27/09:00pm 14.8 11.5 6.6 58 4.0 W 13 15 7 8 1017.0 1017.0 0.0
27/08:30pm 15.1 11.0 6.4 56 4.2 W 17 19 9 10 1017.0 1017.0 0.0
27/08:00pm 15.6 11.9 6.1 53 4.6 W 15 19 8 10 1016.8 1016.8 0.0
27/07:30pm 16.1 12.4 6.3 52 4.8 W 15 19 8 10 1016.4 1016.4 0.0
27/07:00pm 16.9 13.0 7.0 52 4.9 W 17 20 9 11 1016.1 1016.1 0.0
27/06:30pm 17.9 13.6 7.0 49 5.5 W 19 22 10 12 1015.9 1015.9 0.0
27/06:00pm 18.3 14.0 6.8 47 5.7 W 19 24 10 13 1015.6 1015.6 0.0
27/05:30pm 18.8 14.4 6.6 45 6.1 W 19 26 10 14 1015.2 1015.2 0.0
27/05:00pm 19.5 14.2 6.6 43 6.5 W 24 32 13 17 1015.0 1015.0 0.0
27/04:30pm 19.9 14.1 6.3 41 6.8 W 26 32 14 17 1014.8 1014.8 0.0
27/04:00pm 20.1 14.8 6.8 42 6.7 WSW 24 35 13 19 1014.6 1014.6 0.0
27/03:30pm 20.3 14.1 6.3 40 7.0 WSW 28 37 15 20 1014.6 1014.6 0.0
27/03:00pm 20.6 14.7 5.8 38 7.4 W 26 33 14 18 1014.6 1014.6 0.0
27/02:30pm 20.7 15.9 7.3 42 6.9 W 22 32 12 17 1014.5 1014.5 0.0

Other Formats:

Comma delimited format used in spreadsheet applications
http://www.bom.gov.au/fwo/IDS60801/IDS60801.95481.axf

JavaScript Object Notation format (JSON) in row-major order
http://www.bom.gov.au/fwo/IDS60801/IDS60801.95481.json